YSTW

Tamworth Airport

Tamworth, Australia
TAF YSTW 171055Z 1712/1806 VRB04KT CAVOK FM180000 29015G25KT CAVOK
Issued Valid From Valid To
Aug-17 @ 10:55 UTC
(4 hours ago)
Aug-17 @ 12:00 UTC
(3 hours ago)
Aug-18 @ 06:00 UTC
(in 15 hours)
Aug-17 @ 12:00 to Aug-18 @ 00:00
TAF YSTW 171055Z 1712/1806 VRB04KT CAVOK
Wind Visibility Clouds Conditions
Variable at 4 knots 10,000+ meters
  • No significant clouds
From Aug-18 @ 00:00 to Aug-18 @ 06:00
FM180000 29015G25KT CAVOK
Wind Visibility Clouds Conditions
290° at 15 knots
 Gusting to 25 knots
10,000+ meters
  • No significant clouds
TAF YSTW 171055Z 1712/1806 VRB04KT CAVOK FM180000 29015G25KT CAVOK
Issued Aug-17 @ 10:55 UTC
(4 hours ago)
Valid From Aug-17 @ 12:00 UTC
(3 hours ago)
Valid To Aug-18 @ 06:00 UTC
(in 15 hours)
Aug-17 @ 12:00 - Aug-18 @ 00:00
Wind Visibility
Variable at 4 knots 10,000+ meters
Clouds
  • No significant clouds
Conditions
From Aug-18 @ 00:00 - Aug-18 @ 06:00
Wind Visibility
290° at 15 knots
 Gusting to 25 knots
10,000+ meters
Clouds
  • No significant clouds
Conditions